sensor_id;sensor_type;location;lat;lon;timestamp;P1;durP1;ratioP1;P2;durP2;ratioP2
70150;SDS011;57517;43.562;19.540;2023-02-11T00:00:07;49.88;;;33.35;;
70150;SDS011;57517;43.562;19.540;2023-02-11T00:02:33;52.42;;;32.70;;
70150;SDS011;57517;43.562;19.540;2023-02-11T00:04:59;53.78;;;35.13;;
70150;SDS011;57517;43.562;19.540;2023-02-11T00:07:29;59.58;;;40.22;;
70150;SDS011;57517;43.562;19.540;2023-02-11T00:09:56;59.72;;;39.10;;
70150;SDS011;57517;43.562;19.540;2023-02-11T00:12:22;59.30;;;39.10;;
70150;SDS011;57517;43.562;19.540;2023-02-11T00:14:47;53.63;;;33.22;;
70150;SDS011;57517;43.562;19.540;2023-02-11T00:17:13;45.70;;;30.17;;
70150;SDS011;57517;43.562;19.540;2023-02-11T00:19:40;51.17;;;32.83;;
70150;SDS011;57517;43.562;19.540;2023-02-11T00:22:06;58.72;;;36.40;;
70150;SDS011;57517;43.562;19.540;2023-02-11T00:24:32;57.83;;;38.60;;
70150;SDS011;57517;43.562;19.540;2023-02-11T00:26:57;62.30;;;37.67;;
70150;SDS011;57517;43.562;19.540;2023-02-11T00:29:23;57.45;;;37.58;;
70150;SDS011;57517;43.562;19.540;2023-02-11T00:31:49;56.40;;;36.70;;
70150;SDS011;57517;43.562;19.540;2023-02-11T00:34:15;59.92;;;37.08;;
70150;SDS011;57517;43.562;19.540;2023-02-11T00:36:41;68.63;;;42.65;;
70150;SDS011;57517;43.562;19.540;2023-02-11T00:39:07;57.20;;;36.85;;
70150;SDS011;57517;43.562;19.540;2023-02-11T00:41:33;61.67;;;39.10;;
70150;SDS011;57517;43.562;19.540;2023-02-11T00:43:59;57.22;;;40.80;;
70150;SDS011;57517;43.562;19.540;2023-02-11T00:46:25;64.60;;;41.83;;
70150;SDS011;57517;43.562;19.540;2023-02-11T00:48:51;50.53;;;32.33;;
70150;SDS011;57517;43.562;19.540;2023-02-11T00:51:21;39.72;;;25.08;;
70150;SDS011;57517;43.562;19.540;2023-02-11T00:53:51;33.33;;;21.92;;
70150;SDS011;57517;43.562;19.540;2023-02-11T00:56:17;30.58;;;21.92;;
70150;SDS011;57517;43.562;19.540;2023-02-11T00:58:43;35.97;;;23.45;;
70150;SDS011;57517;43.562;19.540;2023-02-11T01:01:08;33.35;;;23.63;;
70150;SDS011;57517;43.562;19.540;2023-02-11T01:03:34;41.83;;;24.80;;
70150;SDS011;57517;43.562;19.540;2023-02-11T01:06:00;37.38;;;23.73;;
70150;SDS011;57517;43.562;19.540;2023-02-11T01:08:26;38.65;;;25.08;;
70150;SDS011;57517;43.562;19.540;2023-02-11T01:10:52;35.25;;;23.80;;
70150;SDS011;57517;43.562;19.540;2023-02-11T01:13:19;37.03;;;24.65;;
70150;SDS011;57517;43.562;19.540;2023-02-11T01:15:45;67.13;;;41.67;;
70150;SDS011;57517;43.562;19.540;2023-02-11T01:18:11;67.75;;;42.92;;
70150;SDS011;57517;43.562;19.540;2023-02-11T01:20:37;48.88;;;31.77;;
70150;SDS011;57517;43.562;19.540;2023-02-11T01:23:02;47.13;;;28.05;;
70150;SDS011;57517;43.562;19.540;2023-02-11T01:25:28;40.35;;;28.45;;
70150;SDS011;57517;43.562;19.540;2023-02-11T01:27:54;42.58;;;25.55;;
70150;SDS011;57517;43.562;19.540;2023-02-11T01:30:19;38.25;;;24.80;;
70150;SDS011;57517;43.562;19.540;2023-02-11T01:32:45;38.58;;;23.33;;
70150;SDS011;57517;43.562;19.540;2023-02-11T01:35:11;34.55;;;22.77;;
70150;SDS011;57517;43.562;19.540;2023-02-11T01:37:36;35.97;;;22.48;;
70150;SDS011;57517;43.562;19.540;2023-02-11T01:40:03;38.58;;;23.35;;
70150;SDS011;57517;43.562;19.540;2023-02-11T01:42:31;38.35;;;24.02;;
70150;SDS011;57517;43.562;19.540;2023-02-11T01:44:58;47.17;;;23.90;;
70150;SDS011;57517;43.562;19.540;2023-02-11T01:47:25;49.03;;;26.92;;
70150;SDS011;57517;43.562;19.540;2023-02-11T01:49:52;42.78;;;28.48;;
70150;SDS011;57517;43.562;19.540;2023-02-11T01:54:54;50.75;;;29.80;;
70150;SDS011;57517;43.562;19.540;2023-02-11T01:57:44;39.30;;;24.75;;
70150;SDS011;57517;43.562;19.540;2023-02-11T02:00:13;36.55;;;23.85;;
70150;SDS011;57517;43.562;19.540;2023-02-11T02:02:56;36.00;;;22.15;;
70150;SDS011;57517;43.562;19.540;2023-02-11T02:10:49;32.42;;;22.77;;
70150;SDS011;57517;43.562;19.540;2023-02-11T02:13:18;41.20;;;27.27;;
70150;SDS011;57517;43.562;19.540;2023-02-11T02:15:54;46.72;;;26.73;;
70150;SDS011;57517;43.562;19.540;2023-02-11T02:32:49;32.58;;;20.25;;
70150;SDS011;57517;43.562;19.540;2023-02-11T02:35:33;29.15;;;20.27;;
70150;SDS011;57517;43.562;19.540;2023-02-11T02:38:18;30.20;;;19.73;;
70150;SDS011;57517;43.562;19.540;2023-02-11T02:41:00;34.00;;;21.52;;
70150;SDS011;57517;43.562;19.540;2023-02-11T02:43:27;38.15;;;21.80;;
70150;SDS011;57517;43.562;19.540;2023-02-11T02:45:54;36.75;;;21.73;;
70150;SDS011;57517;43.562;19.540;2023-02-11T02:48:27;35.80;;;23.80;;
70150;SDS011;57517;43.562;19.540;2023-02-11T02:56:44;29.20;;;20.25;;
70150;SDS011;57517;43.562;19.540;2023-02-11T02:59:17;32.20;;;19.23;;
70150;SDS011;57517;43.562;19.540;2023-02-11T03:09:58;28.45;;;20.50;;
70150;SDS011;57517;43.562;19.540;2023-02-11T03:12:34;29.17;;;18.50;;
70150;SDS011;57517;43.562;19.540;2023-02-11T03:15:02;36.20;;;22.38;;
70150;SDS011;57517;43.562;19.540;2023-02-11T03:17:30;37.78;;;21.67;;
70150;SDS011;57517;43.562;19.540;2023-02-11T03:19:59;32.88;;;21.25;;
70150;SDS011;57517;43.562;19.540;2023-02-11T03:22:32;40.45;;;25.40;;
70150;SDS011;57517;43.562;19.540;2023-02-11T03:25:05;31.38;;;22.50;;
70150;SDS011;57517;43.562;19.540;2023-02-11T03:27:32;32.33;;;20.58;;
70150;SDS011;57517;43.562;19.540;2023-02-11T03:32:32;32.85;;;19.50;;
70150;SDS011;57517;43.562;19.540;2023-02-11T03:35:06;30.90;;;19.83;;
70150;SDS011;57517;43.562;19.540;2023-02-11T03:37:51;24.35;;;17.92;;
70150;SDS011;57517;43.562;19.540;2023-02-11T03:40:37;30.48;;;19.30;;
70150;SDS011;57517;43.562;19.540;2023-02-11T03:43:08;26.05;;;17.73;;
70150;SDS011;57517;43.562;19.540;2023-02-11T03:45:41;28.27;;;18.90;;
70150;SDS011;57517;43.562;19.540;2023-02-11T03:48:17;27.65;;;18.13;;
70150;SDS011;57517;43.562;19.540;2023-02-11T03:53:31;30.58;;;19.25;;
70150;SDS011;57517;43.562;19.540;2023-02-11T03:55:58;36.80;;;20.90;;
70150;SDS011;57517;43.562;19.540;2023-02-11T03:58:26;32.28;;;19.95;;
70150;SDS011;57517;43.562;19.540;2023-02-11T04:00:52;32.20;;;19.45;;
70150;SDS011;57517;43.562;19.540;2023-02-11T04:03:18;29.88;;;19.38;;
70150;SDS011;57517;43.562;19.540;2023-02-11T04:05:44;33.40;;;21.52;;
70150;SDS011;57517;43.562;19.540;2023-02-11T04:08:09;29.42;;;20.00;;
70150;SDS011;57517;43.562;19.540;2023-02-11T04:10:35;29.65;;;19.15;;
70150;SDS011;57517;43.562;19.540;2023-02-11T04:13:01;36.72;;;20.80;;
70150;SDS011;57517;43.562;19.540;2023-02-11T04:15:27;31.92;;;20.38;;
70150;SDS011;57517;43.562;19.540;2023-02-11T04:17:52;37.58;;;22.77;;
70150;SDS011;57517;43.562;19.540;2023-02-11T04:20:18;36.72;;;22.95;;
70150;SDS011;57517;43.562;19.540;2023-02-11T04:22:44;40.65;;;24.52;;
70150;SDS011;57517;43.562;19.540;2023-02-11T04:25:10;45.08;;;25.75;;
70150;SDS011;57517;43.562;19.540;2023-02-11T04:27:36;40.65;;;26.25;;
70150;SDS011;57517;43.562;19.540;2023-02-11T04:30:05;41.85;;;24.38;;
70150;SDS011;57517;43.562;19.540;2023-02-11T04:32:31;38.08;;;23.15;;
70150;SDS011;57517;43.562;19.540;2023-02-11T04:34:57;33.38;;;22.38;;
70150;SDS011;57517;43.562;19.540;2023-02-11T04:37:23;31.95;;;20.52;;
70150;SDS011;57517;43.562;19.540;2023-02-11T04:39:49;29.98;;;18.70;;
70150;SDS011;57517;43.562;19.540;2023-02-11T04:42:14;28.05;;;18.70;;
70150;SDS011;57517;43.562;19.540;2023-02-11T04:44:40;30.33;;;18.75;;
70150;SDS011;57517;43.562;19.540;2023-02-11T04:47:06;26.15;;;17.90;;
70150;SDS011;57517;43.562;19.540;2023-02-11T04:49:31;28.23;;;18.08;;
70150;SDS011;57517;43.562;19.540;2023-02-11T04:51:57;30.20;;;18.17;;
70150;SDS011;57517;43.562;19.540;2023-02-11T04:54:23;32.30;;;20.52;;
70150;SDS011;57517;43.562;19.540;2023-02-11T04:56:48;31.85;;;19.65;;
70150;SDS011;57517;43.562;19.540;2023-02-11T04:59:15;33.45;;;18.88;;
70150;SDS011;57517;43.562;19.540;2023-02-11T05:01:41;29.08;;;18.30;;
70150;SDS011;57517;43.562;19.540;2023-02-11T05:04:07;33.25;;;18.40;;
70150;SDS011;57517;43.562;19.540;2023-02-11T05:06:32;28.08;;;17.10;;
70150;SDS011;57517;43.562;19.540;2023-02-11T05:08:58;28.90;;;17.92;;
70150;SDS011;57517;43.562;19.540;2023-02-11T05:11:24;27.63;;;18.58;;
70150;SDS011;57517;43.562;19.540;2023-02-11T05:13:50;30.02;;;18.70;;
70150;SDS011;57517;43.562;19.540;2023-02-11T05:16:16;29.13;;;18.67;;
70150;SDS011;57517;43.562;19.540;2023-02-11T05:18:43;27.77;;;18.02;;
70150;SDS011;57517;43.562;19.540;2023-02-11T05:21:14;34.85;;;20.50;;
70150;SDS011;57517;43.562;19.540;2023-02-11T05:23:42;33.90;;;21.95;;
70150;SDS011;57517;43.562;19.540;2023-02-11T05:26:08;33.13;;;20.25;;
70150;SDS011;57517;43.562;19.540;2023-02-11T05:28:34;39.08;;;22.48;;
70150;SDS011;57517;43.562;19.540;2023-02-11T05:31:00;35.10;;;21.48;;
70150;SDS011;57517;43.562;19.540;2023-02-11T05:33:26;37.25;;;20.00;;
70150;SDS011;57517;43.562;19.540;2023-02-11T05:35:57;30.27;;;19.73;;
70150;SDS011;57517;43.562;19.540;2023-02-11T05:38:27;33.70;;;20.73;;
70150;SDS011;57517;43.562;19.540;2023-02-11T05:40:54;34.95;;;21.10;;
70150;SDS011;57517;43.562;19.540;2023-02-11T05:43:20;33.90;;;22.48;;
70150;SDS011;57517;43.562;19.540;2023-02-11T05:45:46;45.15;;;27.50;;
70150;SDS011;57517;43.562;19.540;2023-02-11T05:48:12;41.85;;;24.85;;
70150;SDS011;57517;43.562;19.540;2023-02-11T05:50:38;34.05;;;22.10;;
70150;SDS011;57517;43.562;19.540;2023-02-11T05:53:04;40.70;;;26.23;;
70150;SDS011;57517;43.562;19.540;2023-02-11T05:55:30;38.65;;;22.27;;
70150;SDS011;57517;43.562;19.540;2023-02-11T05:57:56;38.47;;;25.25;;
70150;SDS011;57517;43.562;19.540;2023-02-11T06:00:22;60.33;;;38.90;;
70150;SDS011;57517;43.562;19.540;2023-02-11T06:02:48;46.63;;;27.00;;
70150;SDS011;57517;43.562;19.540;2023-02-11T06:05:14;30.92;;;20.02;;
70150;SDS011;57517;43.562;19.540;2023-02-11T06:07:39;34.65;;;24.60;;
70150;SDS011;57517;43.562;19.540;2023-02-11T06:10:05;57.28;;;38.45;;
70150;SDS011;57517;43.562;19.540;2023-02-11T06:12:32;68.60;;;41.95;;
70150;SDS011;57517;43.562;19.540;2023-02-11T06:14:58;51.72;;;34.20;;
70150;SDS011;57517;43.562;19.540;2023-02-11T06:17:23;43.70;;;30.35;;
70150;SDS011;57517;43.562;19.540;2023-02-11T06:19:49;39.53;;;25.13;;
70150;SDS011;57517;43.562;19.540;2023-02-11T06:22:15;34.22;;;20.92;;
70150;SDS011;57517;43.562;19.540;2023-02-11T06:24:41;33.13;;;22.00;;
70150;SDS011;57517;43.562;19.540;2023-02-11T06:27:07;37.95;;;22.65;;
70150;SDS011;57517;43.562;19.540;2023-02-11T06:29:32;38.85;;;24.25;;
70150;SDS011;57517;43.562;19.540;2023-02-11T06:31:58;45.03;;;25.40;;
70150;SDS011;57517;43.562;19.540;2023-02-11T06:34:24;38.35;;;26.13;;
70150;SDS011;57517;43.562;19.540;2023-02-11T06:36:50;50.15;;;28.35;;
70150;SDS011;57517;43.562;19.540;2023-02-11T06:39:15;43.72;;;27.45;;
70150;SDS011;57517;43.562;19.540;2023-02-11T06:41:41;56.03;;;34.72;;
70150;SDS011;57517;43.562;19.540;2023-02-11T06:44:07;61.67;;;38.88;;
70150;SDS011;57517;43.562;19.540;2023-02-11T06:46:33;55.53;;;37.38;;
70150;SDS011;57517;43.562;19.540;2023-02-11T06:48:58;77.90;;;46.22;;
70150;SDS011;57517;43.562;19.540;2023-02-11T06:51:24;74.20;;;49.92;;
70150;SDS011;57517;43.562;19.540;2023-02-11T06:53:50;73.30;;;42.92;;
70150;SDS011;57517;43.562;19.540;2023-02-11T06:56:16;64.18;;;39.67;;
70150;SDS011;57517;43.562;19.540;2023-02-11T06:58:44;57.70;;;37.08;;
70150;SDS011;57517;43.562;19.540;2023-02-11T07:01:11;57.72;;;36.75;;
70150;SDS011;57517;43.562;19.540;2023-02-11T07:03:39;58.40;;;38.65;;
70150;SDS011;57517;43.562;19.540;2023-02-11T07:06:11;62.45;;;37.97;;
70150;SDS011;57517;43.562;19.540;2023-02-11T07:08:39;54.85;;;37.33;;
70150;SDS011;57517;43.562;19.540;2023-02-11T07:13:39;96.18;;;67.32;;
70150;SDS011;57517;43.562;19.540;2023-02-11T07:16:06;57.83;;;40.25;;
70150;SDS011;57517;43.562;19.540;2023-02-11T07:18:34;46.95;;;31.02;;
70150;SDS011;57517;43.562;19.540;2023-02-11T07:21:03;52.63;;;37.80;;
70150;SDS011;57517;43.562;19.540;2023-02-11T07:23:30;35.75;;;26.33;;
70150;SDS011;57517;43.562;19.540;2023-02-11T07:25:56;61.95;;;43.47;;
70150;SDS011;57517;43.562;19.540;2023-02-11T07:28:21;49.95;;;35.72;;
70150;SDS011;57517;43.562;19.540;2023-02-11T07:30:47;55.78;;;38.78;;
70150;SDS011;57517;43.562;19.540;2023-02-11T07:33:13;40.45;;;30.15;;
70150;SDS011;57517;43.562;19.540;2023-02-11T07:35:39;61.83;;;42.05;;
70150;SDS011;57517;43.562;19.540;2023-02-11T07:38:04;39.20;;;26.58;;
70150;SDS011;57517;43.562;19.540;2023-02-11T07:40:30;55.15;;;35.67;;
70150;SDS011;57517;43.562;19.540;2023-02-11T07:42:56;57.75;;;37.33;;
70150;SDS011;57517;43.562;19.540;2023-02-11T07:45:22;40.00;;;26.63;;
70150;SDS011;57517;43.562;19.540;2023-02-11T07:47:49;36.20;;;23.38;;
70150;SDS011;57517;43.562;19.540;2023-02-11T07:50:15;32.13;;;24.17;;
70150;SDS011;57517;43.562;19.540;2023-02-11T07:52:41;29.80;;;19.95;;
70150;SDS011;57517;43.562;19.540;2023-02-11T07:55:07;25.75;;;18.77;;
70150;SDS011;57517;43.562;19.540;2023-02-11T07:57:34;44.85;;;32.30;;
70150;SDS011;57517;43.562;19.540;2023-02-11T08:00:00;51.67;;;39.20;;
70150;SDS011;57517;43.562;19.540;2023-02-11T08:02:26;50.83;;;38.13;;
70150;SDS011;57517;43.562;19.540;2023-02-11T08:04:52;106.18;;;70.93;;
70150;SDS011;57517;43.562;19.540;2023-02-11T08:07:18;34.50;;;25.77;;
70150;SDS011;57517;43.562;19.540;2023-02-11T08:09:43;36.20;;;27.15;;
70150;SDS011;57517;43.562;19.540;2023-02-11T08:12:09;38.60;;;29.63;;
70150;SDS011;57517;43.562;19.540;2023-02-11T08:14:35;31.63;;;23.85;;
70150;SDS011;57517;43.562;19.540;2023-02-11T08:17:02;26.80;;;20.80;;
70150;SDS011;57517;43.562;19.540;2023-02-11T08:19:27;31.08;;;23.25;;
70150;SDS011;57517;43.562;19.540;2023-02-11T08:21:56;38.95;;;31.25;;
70150;SDS011;57517;43.562;19.540;2023-02-11T08:24:23;33.15;;;23.85;;
70150;SDS011;57517;43.562;19.540;2023-02-11T08:26:49;27.85;;;21.45;;
70150;SDS011;57517;43.562;19.540;2023-02-11T08:29:15;28.25;;;23.25;;
70150;SDS011;57517;43.562;19.540;2023-02-11T08:31:42;26.85;;;21.27;;
70150;SDS011;57517;43.562;19.540;2023-02-11T08:34:10;29.38;;;22.42;;
70150;SDS011;57517;43.562;19.540;2023-02-11T08:36:38;29.48;;;21.73;;
70150;SDS011;57517;43.562;19.540;2023-02-11T08:39:11;33.58;;;25.02;;
70150;SDS011;57517;43.562;19.540;2023-02-11T08:41:39;30.17;;;22.83;;
70150;SDS011;57517;43.562;19.540;2023-02-11T08:44:05;48.33;;;38.20;;
70150;SDS011;57517;43.562;19.540;2023-02-11T08:46:31;40.13;;;31.70;;
70150;SDS011;57517;43.562;19.540;2023-02-11T08:48:56;30.25;;;24.77;;
70150;SDS011;57517;43.562;19.540;2023-02-11T08:51:23;35.70;;;29.13;;
70150;SDS011;57517;43.562;19.540;2023-02-11T08:53:55;40.90;;;33.08;;
70150;SDS011;57517;43.562;19.540;2023-02-11T08:56:22;41.80;;;32.97;;
70150;SDS011;57517;43.562;19.540;2023-02-11T08:58:48;34.80;;;27.40;;
70150;SDS011;57517;43.562;19.540;2023-02-11T09:01:15;35.38;;;29.15;;
70150;SDS011;57517;43.562;19.540;2023-02-11T09:03:46;31.40;;;25.88;;
70150;SDS011;57517;43.562;19.540;2023-02-11T09:06:12;33.03;;;25.77;;
70150;SDS011;57517;43.562;19.540;2023-02-11T09:08:40;29.50;;;25.85;;
70150;SDS011;57517;43.562;19.540;2023-02-11T09:11:07;33.85;;;28.05;;
70150;SDS011;57517;43.562;19.540;2023-02-11T09:13:33;36.33;;;30.30;;
70150;SDS011;57517;43.562;19.540;2023-02-11T09:16:00;40.53;;;34.40;;
70150;SDS011;57517;43.562;19.540;2023-02-11T09:18:26;41.88;;;35.60;;
70150;SDS011;57517;43.562;19.540;2023-02-11T09:20:52;30.65;;;26.45;;
70150;SDS011;57517;43.562;19.540;2023-02-11T09:23:18;28.42;;;22.88;;
70150;SDS011;57517;43.562;19.540;2023-02-11T09:25:44;30.67;;;25.65;;
70150;SDS011;57517;43.562;19.540;2023-02-11T09:28:10;32.72;;;26.85;;
70150;SDS011;57517;43.562;19.540;2023-02-11T09:30:36;30.30;;;25.83;;
70150;SDS011;57517;43.562;19.540;2023-02-11T09:33:02;29.75;;;24.27;;
70150;SDS011;57517;43.562;19.540;2023-02-11T09:35:28;25.45;;;21.27;;
70150;SDS011;57517;43.562;19.540;2023-02-11T09:37:54;26.60;;;19.17;;
70150;SDS011;57517;43.562;19.540;2023-02-11T09:40:20;24.67;;;21.85;;
70150;SDS011;57517;43.562;19.540;2023-02-11T09:42:49;21.83;;;19.50;;
70150;SDS011;57517;43.562;19.540;2023-02-11T09:45:26;33.92;;;30.45;;
70150;SDS011;57517;43.562;19.540;2023-02-11T09:47:57;22.85;;;19.02;;
70150;SDS011;57517;43.562;19.540;2023-02-11T09:55:24;27.00;;;22.30;;
70150;SDS011;57517;43.562;19.540;2023-02-11T09:57:50;30.17;;;26.92;;
70150;SDS011;57517;43.562;19.540;2023-02-11T10:00:19;29.77;;;24.90;;
70150;SDS011;57517;43.562;19.540;2023-02-11T10:06:05;34.55;;;26.60;;
70150;SDS011;57517;43.562;19.540;2023-02-11T10:22:24;28.02;;;24.10;;
70150;SDS011;57517;43.562;19.540;2023-02-11T10:24:58;29.55;;;24.40;;
70150;SDS011;57517;43.562;19.540;2023-02-11T10:27:30;34.75;;;25.75;;
70150;SDS011;57517;43.562;19.540;2023-02-11T10:30:04;30.80;;;23.48;;
70150;SDS011;57517;43.562;19.540;2023-02-11T10:35:19;31.75;;;25.38;;
70150;SDS011;57517;43.562;19.540;2023-02-11T10:37:46;32.45;;;26.63;;
70150;SDS011;57517;43.562;19.540;2023-02-11T10:40:21;35.60;;;29.25;;
70150;SDS011;57517;43.562;19.540;2023-02-11T10:42:52;37.63;;;29.55;;
70150;SDS011;57517;43.562;19.540;2023-02-11T10:45:35;39.22;;;30.80;;
70150;SDS011;57517;43.562;19.540;2023-02-11T10:51:25;41.60;;;32.30;;
70150;SDS011;57517;43.562;19.540;2023-02-11T10:56:39;30.67;;;27.27;;
70150;SDS011;57517;43.562;19.540;2023-02-11T11:01:38;30.33;;;26.25;;
70150;SDS011;57517;43.562;19.540;2023-02-11T11:04:08;33.88;;;25.23;;
70150;SDS011;57517;43.562;19.540;2023-02-11T11:06:51;28.85;;;22.90;;
70150;SDS011;57517;43.562;19.540;2023-02-11T11:09:27;37.20;;;29.08;;
70150;SDS011;57517;43.562;19.540;2023-02-11T11:11:56;31.15;;;24.27;;
70150;SDS011;57517;43.562;19.540;2023-02-11T11:14:22;28.90;;;24.27;;
70150;SDS011;57517;43.562;19.540;2023-02-11T11:16:53;30.35;;;23.08;;
70150;SDS011;57517;43.562;19.540;2023-02-11T11:19:23;30.52;;;23.17;;
70150;SDS011;57517;43.562;19.540;2023-02-11T11:21:53;30.75;;;25.23;;
70150;SDS011;57517;43.562;19.540;2023-02-11T11:24:25;34.28;;;27.85;;
70150;SDS011;57517;43.562;19.540;2023-02-11T11:26:57;39.95;;;28.42;;
70150;SDS011;57517;43.562;19.540;2023-02-11T11:29:28;39.03;;;29.88;;
70150;SDS011;57517;43.562;19.540;2023-02-11T11:32:00;38.78;;;28.20;;
70150;SDS011;57517;43.562;19.540;2023-02-11T11:34:33;36.67;;;26.90;;
70150;SDS011;57517;43.562;19.540;2023-02-11T11:37:12;37.53;;;27.55;;
70150;SDS011;57517;43.562;19.540;2023-02-11T11:40:10;33.95;;;25.75;;
70150;SDS011;57517;43.562;19.540;2023-02-11T11:45:37;45.28;;;28.52;;
70150;SDS011;57517;43.562;19.540;2023-02-11T11:50:36;36.55;;;27.83;;
70150;SDS011;57517;43.562;19.540;2023-02-11T11:53:10;34.75;;;25.40;;
70150;SDS011;57517;43.562;19.540;2023-02-11T11:55:41;37.30;;;27.48;;
70150;SDS011;57517;43.562;19.540;2023-02-11T11:58:11;37.97;;;24.52;;
70150;SDS011;57517;43.562;19.540;2023-02-11T12:12:02;79.05;;;55.45;;
70150;SDS011;57517;43.562;19.540;2023-02-11T12:14:40;44.33;;;33.90;;
70150;SDS011;57517;43.562;19.540;2023-02-11T12:22:25;31.65;;;25.20;;
70150;SDS011;57517;43.562;19.540;2023-02-11T12:36:04;28.17;;;21.27;;
70150;SDS011;57517;43.562;19.540;2023-02-11T12:38:53;35.63;;;25.88;;
70150;SDS011;57517;43.562;19.540;2023-02-11T12:50:29;34.40;;;27.45;;
70150;SDS011;57517;43.562;19.540;2023-02-11T12:55:35;31.33;;;22.40;;
70150;SDS011;57517;43.562;19.540;2023-02-11T12:58:04;31.70;;;21.83;;
70150;SDS011;57517;43.562;19.540;2023-02-11T13:00:50;33.38;;;24.55;;
70150;SDS011;57517;43.562;19.540;2023-02-11T13:06:16;28.00;;;20.58;;
70150;SDS011;57517;43.562;19.540;2023-02-11T13:08:47;31.65;;;20.67;;
70150;SDS011;57517;43.562;19.540;2023-02-11T13:11:16;29.33;;;19.60;;
70150;SDS011;57517;43.562;19.540;2023-02-11T13:14:08;24.38;;;17.10;;
70150;SDS011;57517;43.562;19.540;2023-02-11T13:16:46;23.25;;;16.30;;
70150;SDS011;57517;43.562;19.540;2023-02-11T13:19:18;28.75;;;18.38;;
70150;SDS011;57517;43.562;19.540;2023-02-11T13:24:38;27.30;;;18.33;;
70150;SDS011;57517;43.562;19.540;2023-02-11T13:30:27;30.48;;;23.92;;
70150;SDS011;57517;43.562;19.540;2023-02-11T13:38:04;35.78;;;27.73;;
70150;SDS011;57517;43.562;19.540;2023-02-11T13:40:56;46.53;;;30.13;;
70150;SDS011;57517;43.562;19.540;2023-02-11T13:43:29;38.35;;;30.33;;
70150;SDS011;57517;43.562;19.540;2023-02-11T13:46:07;46.85;;;31.65;;
70150;SDS011;57517;43.562;19.540;2023-02-11T13:48:48;48.25;;;32.22;;
70150;SDS011;57517;43.562;19.540;2023-02-11T13:51:17;41.17;;;28.42;;
70150;SDS011;57517;43.562;19.540;2023-02-11T13:54:04;41.70;;;30.60;;
70150;SDS011;57517;43.562;19.540;2023-02-11T13:59:24;56.10;;;40.17;;
70150;SDS011;57517;43.562;19.540;2023-02-11T14:02:04;51.85;;;38.70;;
70150;SDS011;57517;43.562;19.540;2023-02-11T14:10:53;37.58;;;26.25;;
70150;SDS011;57517;43.562;19.540;2023-02-11T14:16:05;36.70;;;28.05;;
70150;SDS011;57517;43.562;19.540;2023-02-11T14:18:35;53.60;;;37.50;;
70150;SDS011;57517;43.562;19.540;2023-02-11T14:23:51;64.35;;;46.78;;
70150;SDS011;57517;43.562;19.540;2023-02-11T14:31:49;91.78;;;67.82;;
70150;SDS011;57517;43.562;19.540;2023-02-11T14:39:58;99.88;;;74.47;;
70150;SDS011;57517;43.562;19.540;2023-02-11T14:42:40;95.88;;;75.68;;
70150;SDS011;57517;43.562;19.540;2023-02-11T14:45:09;96.05;;;74.80;;
70150;SDS011;57517;43.562;19.540;2023-02-11T14:47:41;95.60;;;69.78;;
70150;SDS011;57517;43.562;19.540;2023-02-11T14:53:17;111.03;;;81.47;;
70150;SDS011;57517;43.562;19.540;2023-02-11T14:55:49;107.30;;;78.85;;
70150;SDS011;57517;43.562;19.540;2023-02-11T15:03:41;100.53;;;74.30;;
70150;SDS011;57517;43.562;19.540;2023-02-11T15:06:15;88.65;;;66.78;;
70150;SDS011;57517;43.562;19.540;2023-02-11T15:08:44;80.47;;;57.67;;
70150;SDS011;57517;43.562;19.540;2023-02-11T15:11:37;79.45;;;55.67;;
70150;SDS011;57517;43.562;19.540;2023-02-11T15:14:15;78.00;;;56.78;;
70150;SDS011;57517;43.562;19.540;2023-02-11T15:16:46;81.35;;;59.55;;
70150;SDS011;57517;43.562;19.540;2023-02-11T15:21:50;72.60;;;55.53;;
70150;SDS011;57517;43.562;19.540;2023-02-11T15:27:01;80.07;;;56.30;;
70150;SDS011;57517;43.562;19.540;2023-02-11T15:29:42;83.63;;;56.15;;
70150;SDS011;57517;43.562;19.540;2023-02-11T15:32:14;75.57;;;57.00;;
70150;SDS011;57517;43.562;19.540;2023-02-11T15:34:48;82.00;;;58.00;;
70150;SDS011;57517;43.562;19.540;2023-02-11T15:37:20;78.85;;;58.00;;
70150;SDS011;57517;43.562;19.540;2023-02-11T15:39:51;80.72;;;61.33;;
70150;SDS011;57517;43.562;19.540;2023-02-11T15:42:24;89.68;;;68.93;;
70150;SDS011;57517;43.562;19.540;2023-02-11T15:47:38;101.38;;;72.53;;
70150;SDS011;57517;43.562;19.540;2023-02-11T15:50:06;91.55;;;67.22;;
70150;SDS011;57517;43.562;19.540;2023-02-11T15:52:44;99.40;;;71.45;;
70150;SDS011;57517;43.562;19.540;2023-02-11T15:55:12;95.35;;;66.95;;
70150;SDS011;57517;43.562;19.540;2023-02-11T15:57:46;93.38;;;67.35;;
70150;SDS011;57517;43.562;19.540;2023-02-11T16:00:27;100.90;;;71.10;;
70150;SDS011;57517;43.562;19.540;2023-02-11T16:03:00;111.93;;;76.82;;
70150;SDS011;57517;43.562;19.540;2023-02-11T16:05:34;114.28;;;78.60;;
70150;SDS011;57517;43.562;19.540;2023-02-11T16:08:23;106.35;;;78.38;;
70150;SDS011;57517;43.562;19.540;2023-02-11T16:11:06;95.82;;;68.65;;
70150;SDS011;57517;43.562;19.540;2023-02-11T16:13:46;89.65;;;67.75;;
70150;SDS011;57517;43.562;19.540;2023-02-11T16:16:18;75.15;;;53.13;;
70150;SDS011;57517;43.562;19.540;2023-02-11T16:18:53;65.70;;;44.50;;
70150;SDS011;57517;43.562;19.540;2023-02-11T16:21:23;48.92;;;35.30;;
70150;SDS011;57517;43.562;19.540;2023-02-11T16:24:03;51.60;;;37.15;;
70150;SDS011;57517;43.562;19.540;2023-02-11T16:26:44;49.80;;;34.63;;
70150;SDS011;57517;43.562;19.540;2023-02-11T16:29:22;53.47;;;36.50;;
70150;SDS011;57517;43.562;19.540;2023-02-11T16:31:52;41.60;;;31.10;;
70150;SDS011;57517;43.562;19.540;2023-02-11T16:34:28;45.28;;;30.27;;
70150;SDS011;57517;43.562;19.540;2023-02-11T16:36:54;59.55;;;38.38;;
70150;SDS011;57517;43.562;19.540;2023-02-11T16:39:20;57.45;;;42.00;;
70150;SDS011;57517;43.562;19.540;2023-02-11T16:41:46;55.72;;;42.47;;
70150;SDS011;57517;43.562;19.540;2023-02-11T16:44:15;56.40;;;40.70;;
70150;SDS011;57517;43.562;19.540;2023-02-11T16:46:41;43.28;;;32.03;;
70150;SDS011;57517;43.562;19.540;2023-02-11T16:49:11;47.60;;;33.30;;
70150;SDS011;57517;43.562;19.540;2023-02-11T16:51:50;43.42;;;34.20;;
70150;SDS011;57517;43.562;19.540;2023-02-11T16:54:17;43.85;;;31.05;;
70150;SDS011;57517;43.562;19.540;2023-02-11T16:56:44;45.13;;;30.77;;
70150;SDS011;57517;43.562;19.540;2023-02-11T16:59:10;42.80;;;31.60;;
70150;SDS011;57517;43.562;19.540;2023-02-11T17:01:36;43.10;;;31.90;;
70150;SDS011;57517;43.562;19.540;2023-02-11T17:04:04;44.47;;;32.05;;
70150;SDS011;57517;43.562;19.540;2023-02-11T17:06:32;42.75;;;31.15;;
70150;SDS011;57517;43.562;19.540;2023-02-11T17:08:58;55.10;;;38.88;;
70150;SDS011;57517;43.562;19.540;2023-02-11T17:11:24;50.67;;;39.72;;
70150;SDS011;57517;43.562;19.540;2023-02-11T17:13:50;53.38;;;38.88;;
70150;SDS011;57517;43.562;19.540;2023-02-11T17:16:18;65.40;;;48.05;;
70150;SDS011;57517;43.562;19.540;2023-02-11T17:18:45;69.40;;;50.17;;